createdAt,value
2016-07-17T00:00:34.111Z,1013.71
2016-07-17T00:01:34.095Z,1013.7
2016-07-17T00:02:34.097Z,1013.7
2016-07-17T00:03:34.076Z,1013.71
2016-07-17T00:04:34.069Z,1013.68
2016-07-17T00:05:34.056Z,1013.69
2016-07-17T00:06:34.050Z,1013.68
2016-07-17T00:07:34.040Z,1013.64
2016-07-17T00:08:34.030Z,1013.66
2016-07-17T00:09:34.019Z,1013.66
2016-07-17T00:10:34.012Z,1013.67
2016-07-17T00:11:34.003Z,1013.68
2016-07-17T00:12:33.992Z,1013.69
2016-07-17T00:13:33.981Z,1013.68
2016-07-17T00:14:33.975Z,1013.69
2016-07-17T00:15:33.964Z,1013.69
2016-07-17T00:16:33.955Z,1013.67
2016-07-17T00:17:33.945Z,1013.66
2016-07-17T00:18:33.937Z,1013.64
2016-07-17T00:19:33.927Z,1013.62
2016-07-17T00:20:33.918Z,1013.61
2016-07-17T00:21:33.911Z,1013.58
2016-07-17T00:22:33.900Z,1013.56
2016-07-17T00:23:33.887Z,1013.59
2016-07-17T00:24:33.879Z,1013.57
2016-07-17T00:25:33.869Z,1013.56
2016-07-17T00:26:33.861Z,1013.55
2016-07-17T00:27:33.850Z,1013.57
2016-07-17T00:28:33.843Z,1013.55
2016-07-17T00:29:33.835Z,1013.54
2016-07-17T00:30:33.826Z,1013.54
2016-07-17T00:31:33.811Z,1013.61
2016-07-17T00:32:34.006Z,1013.52
2016-07-17T00:33:33.795Z,1013.53
2016-07-17T00:34:33.783Z,1013.53
2016-07-17T00:35:33.776Z,1013.53
2016-07-17T00:36:33.767Z,1013.54
2016-07-17T00:37:33.754Z,1013.53
2016-07-17T00:38:33.748Z,1013.51
2016-07-17T00:39:33.737Z,1013.48
2016-07-17T00:40:33.733Z,1013.52
2016-07-17T00:41:33.720Z,1013.5
2016-07-17T00:42:33.710Z,1013.51
2016-07-17T00:43:33.705Z,1013.46
2016-07-17T00:44:33.691Z,1013.5
2016-07-17T00:45:33.682Z,1013.5
2016-07-17T00:46:33.672Z,1013.48
2016-07-17T00:47:33.663Z,1013.5
2016-07-17T00:48:33.657Z,1013.49
2016-07-17T00:49:33.643Z,1013.45
2016-07-17T00:50:33.636Z,1013.39
2016-07-17T00:51:33.627Z,1013.4
2016-07-17T00:52:33.621Z,1013.41
2016-07-17T00:53:33.606Z,1013.37
2016-07-17T00:54:33.598Z,1013.38
2016-07-17T00:55:33.590Z,1013.39
2016-07-17T00:56:33.580Z,1013.42
2016-07-17T00:57:33.570Z,1013.39
2016-07-17T00:58:33.562Z,1013.37
2016-07-17T00:59:33.552Z,1013.4
2016-07-17T01:00:33.544Z,1013.37
2016-07-17T01:01:33.534Z,1013.36
2016-07-17T01:02:33.528Z,1013.37
2016-07-17T01:03:33.516Z,1013.36
2016-07-17T01:04:33.507Z,1013.34
2016-07-17T01:05:33.498Z,1013.37
2016-07-17T01:06:33.487Z,1013.36
2016-07-17T01:07:33.480Z,1013.36
2016-07-17T01:08:33.470Z,1013.37
2016-07-17T01:09:33.460Z,1013.38
2016-07-17T01:10:33.451Z,1013.36
2016-07-17T01:11:33.443Z,1013.37
2016-07-17T01:12:33.433Z,1013.33
2016-07-17T01:13:33.424Z,1013.34
2016-07-17T01:14:33.414Z,1013.33
2016-07-17T01:15:33.406Z,1013.34
2016-07-17T01:16:33.397Z,1013.36
2016-07-17T01:17:33.389Z,1013.32
2016-07-17T01:18:33.378Z,1013.3
2016-07-17T01:19:33.370Z,1013.33
2016-07-17T01:20:33.361Z,1013.34
2016-07-17T01:21:33.351Z,1013.28
2016-07-17T01:22:33.343Z,1013.3
2016-07-17T01:23:33.335Z,1013.28
2016-07-17T01:24:33.324Z,1013.3
2016-07-17T01:25:33.316Z,1013.29
2016-07-17T01:26:33.304Z,1013.27
2016-07-17T01:27:33.298Z,1013.3
2016-07-17T01:28:33.291Z,1013.31
2016-07-17T01:29:33.278Z,1013.31
2016-07-17T01:30:33.268Z,1013.32
2016-07-17T01:31:33.266Z,1013.3
2016-07-17T01:32:33.251Z,1013.3
2016-07-17T01:33:33.241Z,1013.32
2016-07-17T01:34:33.232Z,1013.31
2016-07-17T01:35:33.224Z,1013.26
2016-07-17T01:36:33.213Z,1013.33
2016-07-17T01:37:33.204Z,1013.28
2016-07-17T01:38:33.196Z,1013.3
2016-07-17T01:39:33.187Z,1013.25
2016-07-17T01:40:33.177Z,1013.31
2016-07-17T01:41:33.168Z,1013.26
2016-07-17T01:42:33.158Z,1013.26
2016-07-17T01:43:33.151Z,1013.26
2016-07-17T01:44:33.139Z,1013.25
2016-07-17T01:45:33.131Z,1013.23
2016-07-17T01:46:33.124Z,1013.23
2016-07-17T01:47:33.111Z,1013.23
2016-07-17T01:48:33.105Z,1013.22
2016-07-17T01:49:33.095Z,1013.21
2016-07-17T01:50:33.088Z,1013.17
2016-07-17T01:51:33.076Z,1013.17
2016-07-17T01:52:33.070Z,1013.15
2016-07-17T01:53:33.058Z,1013.12
2016-07-17T01:54:33.050Z,1013.07
2016-07-17T01:55:33.043Z,1013.08
2016-07-17T01:56:33.032Z,1013.05
2016-07-17T01:57:33.023Z,1013.03
2016-07-17T01:58:33.013Z,1013.05
2016-07-17T01:59:33.005Z,1013.03
2016-07-17T02:00:32.997Z,1013
2016-07-17T02:01:32.987Z,1012.99
2016-07-17T02:02:32.977Z,1012.96
2016-07-17T02:03:32.968Z,1012.98
2016-07-17T02:04:32.958Z,1012.95
2016-07-17T02:05:32.947Z,1012.96
2016-07-17T02:06:32.941Z,1012.96
2016-07-17T02:07:32.931Z,1012.97
2016-07-17T02:08:32.921Z,1012.97
2016-07-17T02:09:32.911Z,1012.94
2016-07-17T02:10:32.904Z,1012.96
2016-07-17T02:11:32.895Z,1012.95
2016-07-17T02:12:32.884Z,1012.94
2016-07-17T02:13:32.875Z,1012.93
2016-07-17T02:14:32.866Z,1012.93
2016-07-17T02:15:32.858Z,1012.94
2016-07-17T02:16:32.863Z,1012.92
2016-07-17T02:17:32.838Z,1012.9
2016-07-17T02:18:32.831Z,1012.89
2016-07-17T02:19:32.820Z,1012.88
2016-07-17T02:20:32.809Z,1012.87
2016-07-17T02:21:32.801Z,1012.87
2016-07-17T02:22:32.792Z,1012.87
2016-07-17T02:23:32.782Z,1012.86
2016-07-17T02:24:32.778Z,1012.86
2016-07-17T02:25:32.764Z,1012.86
2016-07-17T02:26:32.757Z,1012.84
2016-07-17T02:27:32.746Z,1012.81
2016-07-17T02:28:32.736Z,1012.84
2016-07-17T02:29:32.732Z,1012.85
2016-07-17T02:30:32.720Z,1012.86
2016-07-17T02:31:32.712Z,1012.84
2016-07-17T02:32:32.904Z,1012.82
2016-07-17T02:33:32.692Z,1012.8
2016-07-17T02:34:32.682Z,1012.79
2016-07-17T02:35:32.674Z,1012.79
2016-07-17T02:36:32.663Z,1012.79
2016-07-17T02:37:32.657Z,1012.8
2016-07-17T02:38:32.650Z,1012.81
2016-07-17T02:39:32.638Z,1012.78
2016-07-17T02:40:32.630Z,1012.79
2016-07-17T02:41:32.618Z,1012.79
2016-07-17T02:42:32.608Z,1012.81
2016-07-17T02:43:32.600Z,1012.81
2016-07-17T02:44:32.591Z,1012.81
2016-07-17T02:45:32.580Z,1012.81
2016-07-17T02:46:32.572Z,1012.83
2016-07-17T02:47:32.567Z,1012.8
2016-07-17T02:48:32.562Z,1012.81
2016-07-17T02:49:32.549Z,1012.83
2016-07-17T02:50:32.537Z,1012.79
2016-07-17T02:51:32.527Z,1012.79
2016-07-17T02:52:32.518Z,1012.81
2016-07-17T02:53:32.508Z,1012.82
2016-07-17T02:54:32.499Z,1012.83
2016-07-17T02:55:32.491Z,1012.83
2016-07-17T02:56:32.480Z,1012.86
2016-07-17T02:57:32.477Z,1012.88
2016-07-17T02:58:32.468Z,1012.86
2016-07-17T02:59:32.454Z,1012.84
2016-07-17T03:00:32.448Z,1012.81
2016-07-17T03:01:32.434Z,1012.84
2016-07-17T03:02:32.425Z,1012.86
2016-07-17T03:03:32.417Z,1012.82
2016-07-17T03:04:32.406Z,1012.82
2016-07-17T03:05:32.398Z,1012.81
2016-07-17T03:06:32.389Z,1012.77
2016-07-17T03:07:32.379Z,1012.74
2016-07-17T03:08:32.372Z,1012.74
2016-07-17T03:09:32.361Z,1012.73
2016-07-17T03:10:32.351Z,1012.75
2016-07-17T03:11:32.340Z,1012.75
2016-07-17T03:12:32.333Z,1012.75
2016-07-17T03:13:32.325Z,1012.76
2016-07-17T03:14:32.314Z,1012.77
2016-07-17T03:15:32.305Z,1012.74
2016-07-17T03:16:32.297Z,1012.73
2016-07-17T03:17:32.291Z,1012.77
2016-07-17T03:18:32.276Z,1012.75
2016-07-17T03:19:32.269Z,1012.69
2016-07-17T03:20:32.260Z,1012.74
2016-07-17T03:21:32.250Z,1012.74
2016-07-17T03:22:32.240Z,1012.73
2016-07-17T03:23:32.231Z,1012.7
2016-07-17T03:24:32.221Z,1012.69
2016-07-17T03:25:32.212Z,1012.67
2016-07-17T03:26:32.204Z,1012.72
2016-07-17T03:27:32.195Z,1012.7
2016-07-17T03:28:32.186Z,1012.69
2016-07-17T03:29:32.177Z,1012.7
2016-07-17T03:30:32.166Z,1012.68
2016-07-17T03:31:32.159Z,1012.68
2016-07-17T03:32:32.149Z,1012.68
2016-07-17T03:33:32.140Z,1012.68
2016-07-17T03:34:32.131Z,1012.65
2016-07-17T03:35:32.120Z,1012.61
2016-07-17T03:36:32.111Z,1012.69
2016-07-17T03:37:32.103Z,1012.69
2016-07-17T03:38:32.094Z,1012.71
2016-07-17T03:39:32.084Z,1012.71
2016-07-17T03:40:32.075Z,1012.73
2016-07-17T03:41:32.065Z,1012.76
2016-07-17T03:42:32.058Z,1012.75
2016-07-17T03:43:32.047Z,1012.7
2016-07-17T03:44:32.037Z,1012.71
2016-07-17T03:45:32.031Z,1012.73
2016-07-17T03:46:32.019Z,1012.72
2016-07-17T03:47:32.010Z,1012.73
2016-07-17T03:48:32.006Z,1012.78
2016-07-17T03:49:31.991Z,1012.72
2016-07-17T03:50:31.984Z,1012.69
2016-07-17T03:51:31.973Z,1012.68
2016-07-17T03:52:31.963Z,1012.63
2016-07-17T03:53:31.955Z,1012.62
2016-07-17T03:54:31.948Z,1012.63
2016-07-17T03:55:31.934Z,1012.65
2016-07-17T03:56:31.926Z,1012.7
2016-07-17T03:57:31.918Z,1012.69
2016-07-17T03:58:31.907Z,1012.72
2016-07-17T03:59:31.897Z,1012.77
2016-07-17T04:00:31.890Z,1012.78
2016-07-17T04:01:31.880Z,1012.74
2016-07-17T04:02:31.871Z,1012.77
2016-07-17T04:03:31.862Z,1012.78
2016-07-17T04:04:31.851Z,1012.7
2016-07-17T04:05:31.842Z,1012.72
2016-07-17T04:06:31.834Z,1012.74
2016-07-17T04:07:31.824Z,1012.71
2016-07-17T04:08:31.815Z,1012.71
2016-07-17T04:09:31.805Z,1012.7
2016-07-17T04:10:31.797Z,1012.69
2016-07-17T04:11:31.788Z,1012.65
2016-07-17T04:12:31.779Z,1012.7
2016-07-17T04:13:31.766Z,1012.69
2016-07-17T04:14:31.762Z,1012.75
2016-07-17T04:15:31.749Z,1012.74
2016-07-17T04:16:31.742Z,1012.75
2016-07-17T04:17:31.731Z,1012.76
2016-07-17T04:18:31.722Z,1012.74
2016-07-17T04:19:31.714Z,1012.74
2016-07-17T04:20:31.706Z,1012.77
2016-07-17T04:21:31.695Z,1012.73
2016-07-17T04:22:31.689Z,1012.77
2016-07-17T04:23:31.678Z,1012.72
2016-07-17T04:24:31.667Z,1012.73
2016-07-17T04:25:31.658Z,1012.75
2016-07-17T04:26:31.649Z,1012.79
2016-07-17T04:27:31.640Z,1012.75
2016-07-17T04:28:31.629Z,1012.76
2016-07-17T04:29:31.621Z,1012.74
2016-07-17T04:30:31.612Z,1012.76
2016-07-17T04:31:31.602Z,1012.78
2016-07-17T04:32:31.795Z,1012.82
2016-07-17T04:33:31.586Z,1012.8
2016-07-17T04:34:31.577Z,1012.78
2016-07-17T04:35:31.570Z,1012.82
2016-07-17T04:36:31.557Z,1012.81
2016-07-17T04:37:31.548Z,1012.77
2016-07-17T04:38:31.539Z,1012.74
2016-07-17T04:39:31.527Z,1012.79
2016-07-17T04:40:31.522Z,1012.79
2016-07-17T04:41:31.512Z,1012.82
2016-07-17T04:42:31.501Z,1012.81
2016-07-17T04:43:31.494Z,1012.79
2016-07-17T04:44:31.483Z,1012.8
2016-07-17T04:45:31.478Z,1012.79
2016-07-17T04:46:31.464Z,1012.73
2016-07-17T04:47:31.457Z,1012.74
2016-07-17T04:48:31.447Z,1012.74
2016-07-17T04:49:31.438Z,1012.65
2016-07-17T04:50:31.429Z,1012.66
2016-07-17T04:51:31.420Z,1012.68
2016-07-17T04:52:31.413Z,1012.68
2016-07-17T04:53:31.402Z,1012.65
2016-07-17T04:54:31.392Z,1012.65
2016-07-17T04:55:31.382Z,1012.65
2016-07-17T04:56:31.374Z,1012.64
2016-07-17T04:57:31.364Z,1012.67
2016-07-17T04:58:31.356Z,1012.69
2016-07-17T04:59:31.346Z,1012.67
2016-07-17T05:00:31.338Z,1012.7
2016-07-17T05:01:31.330Z,1012.69
2016-07-17T05:02:31.319Z,1012.67
2016-07-17T05:03:31.312Z,1012.66
2016-07-17T05:04:31.301Z,1012.69
2016-07-17T05:05:31.292Z,1012.66
2016-07-17T05:06:31.283Z,1012.66
2016-07-17T05:07:31.274Z,1012.7
2016-07-17T05:08:31.264Z,1012.71
2016-07-17T05:09:31.257Z,1012.72
2016-07-17T05:10:31.249Z,1012.76
2016-07-17T05:11:31.238Z,1012.77
2016-07-17T05:12:31.230Z,1012.79
2016-07-17T05:13:31.221Z,1012.8
2016-07-17T05:14:31.211Z,1012.83
2016-07-17T05:15:31.204Z,1012.79
2016-07-17T05:16:31.192Z,1012.74
2016-07-17T05:17:31.185Z,1012.74
2016-07-17T05:18:31.178Z,1012.72
2016-07-17T05:19:31.167Z,1012.72
2016-07-17T05:20:31.161Z,1012.71
2016-07-17T05:21:31.150Z,1012.67
2016-07-17T05:22:31.139Z,1012.72
2016-07-17T05:23:31.132Z,1012.74
2016-07-17T05:24:31.122Z,1012.73
2016-07-17T05:25:31.116Z,1012.79
2016-07-17T05:26:31.104Z,1012.84
2016-07-17T05:27:31.101Z,1012.8
2016-07-17T05:28:31.090Z,1012.81
2016-07-17T05:29:31.079Z,1012.83
2016-07-17T05:30:31.071Z,1012.83
2016-07-17T05:31:31.062Z,1012.84
2016-07-17T05:32:31.054Z,1012.78
2016-07-17T05:33:31.044Z,1012.82
2016-07-17T05:34:31.037Z,1012.81
2016-07-17T05:35:31.027Z,1012.82
2016-07-17T05:36:31.018Z,1012.79
2016-07-17T05:37:31.010Z,1012.79
2016-07-17T05:38:31.001Z,1012.82
2016-07-17T05:39:30.994Z,1012.8
2016-07-17T05:40:30.983Z,1012.84
2016-07-17T05:41:30.974Z,1012.82
2016-07-17T05:42:30.967Z,1012.83
2016-07-17T05:43:30.958Z,1012.9
2016-07-17T05:44:30.948Z,1012.89
2016-07-17T05:45:30.941Z,1012.92
2016-07-17T05:46:30.932Z,1012.91
2016-07-17T05:47:30.924Z,1012.92
2016-07-17T05:48:30.916Z,1012.91
2016-07-17T05:49:30.908Z,1012.91
2016-07-17T05:50:30.900Z,1012.91
2016-07-17T05:51:30.892Z,1012.9
2016-07-17T05:52:30.880Z,1012.95
2016-07-17T05:53:30.872Z,1012.93
2016-07-17T05:54:30.864Z,1012.97
2016-07-17T05:55:30.856Z,1012.91
2016-07-17T05:56:30.847Z,1012.94
2016-07-17T05:57:30.841Z,1012.94
2016-07-17T05:58:30.831Z,1012.91
2016-07-17T05:59:30.823Z,1012.94
2016-07-17T06:00:30.815Z,1012.96
2016-07-17T06:01:30.807Z,1012.96
2016-07-17T06:02:30.799Z,1012.95
2016-07-17T06:03:30.791Z,1012.95
2016-07-17T06:04:30.783Z,1012.98
2016-07-17T06:05:30.774Z,1013
2016-07-17T06:06:30.764Z,1013.03
2016-07-17T06:07:30.756Z,1013
2016-07-17T06:08:30.750Z,1013.06
2016-07-17T06:09:30.742Z,1013.05
2016-07-17T06:10:30.732Z,1013.02
2016-07-17T06:11:30.725Z,1013.01
2016-07-17T06:12:30.717Z,1013.06
2016-07-17T06:13:30.709Z,1013.09
2016-07-17T06:14:30.698Z,1013.06
2016-07-17T06:15:30.692Z,1013.07
2016-07-17T06:16:30.683Z,1013.09
2016-07-17T06:17:30.676Z,1013.05
2016-07-17T06:18:30.667Z,1013.06
2016-07-17T06:19:30.660Z,1013.07
2016-07-17T06:20:30.650Z,1013.09
2016-07-17T06:21:30.645Z,1013.04
2016-07-17T06:22:30.635Z,1013.08
2016-07-17T06:23:30.628Z,1013.12
2016-07-17T06:24:30.620Z,1013.09
2016-07-17T06:25:30.622Z,1013.14
2016-07-17T06:26:30.603Z,1013.15
2016-07-17T06:27:30.599Z,1013.16
2016-07-17T06:28:30.585Z,1013.18
2016-07-17T06:29:30.578Z,1013.16
2016-07-17T06:30:30.571Z,1013.12
2016-07-17T06:31:30.565Z,1013.1
2016-07-17T06:32:30.756Z,1013.12
2016-07-17T06:33:30.554Z,1013.1
2016-07-17T06:34:30.537Z,1013.13
2016-07-17T06:35:30.536Z,1013.07
2016-07-17T06:36:30.523Z,1013.14
2016-07-17T06:37:30.520Z,1013.1
2016-07-17T06:38:30.506Z,1013.11
2016-07-17T06:39:30.500Z,1013.14
2016-07-17T06:40:30.489Z,1013.12
2016-07-17T06:41:30.489Z,1013.13
2016-07-17T06:42:30.473Z,1013.1
2016-07-17T06:43:30.485Z,1013.13
2016-07-17T06:44:30.457Z,1013.07
2016-07-17T06:45:30.453Z,1013.07
2016-07-17T06:46:30.439Z,1013.08
2016-07-17T06:47:30.433Z,1013.1
2016-07-17T06:48:30.426Z,1013.11
2016-07-17T06:49:30.417Z,1013.18
2016-07-17T06:50:30.412Z,1013.18
2016-07-17T06:51:30.424Z,1013.13
2016-07-17T06:52:30.391Z,1013.18
2016-07-17T06:53:30.392Z,1013.16
2016-07-17T06:54:30.377Z,1013.13
2016-07-17T06:55:30.385Z,1013.13
2016-07-17T06:56:30.360Z,1013.13
2016-07-17T06:57:30.350Z,1013.17
2016-07-17T06:58:30.340Z,1013.22
2016-07-17T06:59:30.332Z,1013.22
2016-07-17T07:00:30.328Z,1013.25
2016-07-17T07:01:30.318Z,1013.23
2016-07-17T07:02:30.308Z,1013.26
2016-07-17T07:03:30.299Z,1013.25
2016-07-17T07:04:30.291Z,1013.23
2016-07-17T07:05:30.284Z,1013.24
2016-07-17T07:06:30.275Z,1013.25
2016-07-17T07:07:30.267Z,1013.23
2016-07-17T07:08:30.260Z,1013.26
2016-07-17T07:09:30.250Z,1013.19
2016-07-17T07:10:30.242Z,1013.21
2016-07-17T07:11:30.234Z,1013.24
2016-07-17T07:12:30.231Z,1013.28
2016-07-17T07:13:30.217Z,1013.26
2016-07-17T07:14:30.211Z,1013.3
2016-07-17T07:15:30.201Z,1013.25
2016-07-17T07:16:30.194Z,1013.26
2016-07-17T07:17:30.185Z,1013.28
2016-07-17T07:18:30.177Z,1013.26
2016-07-17T07:19:30.167Z,1013.26
2016-07-17T07:20:30.159Z,1013.26
2016-07-17T07:21:30.152Z,1013.25
2016-07-17T07:22:30.145Z,1013.24
2016-07-17T07:23:30.134Z,1013.24
2016-07-17T07:24:30.128Z,1013.25
2016-07-17T07:25:30.121Z,1013.28
2016-07-17T07:26:30.116Z,1013.31
2016-07-17T07:27:30.103Z,1013.31
2016-07-17T07:28:30.095Z,1013.3
2016-07-17T07:29:30.087Z,1013.3
2016-07-17T07:30:30.078Z,1013.29
2016-07-17T07:31:30.071Z,1013.27
2016-07-17T07:32:30.062Z,1013.27
2016-07-17T07:33:30.055Z,1013.23
2016-07-17T07:34:30.045Z,1013.24
2016-07-17T07:35:30.038Z,1013.2
2016-07-17T07:36:30.030Z,1013.21
2016-07-17T07:37:30.021Z,1013.18
2016-07-17T07:38:30.015Z,1013.25
2016-07-17T07:39:30.005Z,1013.22
2016-07-17T07:40:29.996Z,1013.23
2016-07-17T07:41:29.988Z,1013.25
2016-07-17T07:42:29.979Z,1013.24
2016-07-17T07:43:29.972Z,1013.24
2016-07-17T07:44:29.963Z,1013.27
2016-07-17T07:45:29.955Z,1013.24
2016-07-17T07:46:30.031Z,1013.32
2016-07-17T07:47:29.945Z,1013.31
2016-07-17T07:48:29.932Z,1013.29
2016-07-17T07:49:29.922Z,1013.23
2016-07-17T07:50:29.916Z,1013.19
2016-07-17T07:51:29.908Z,1013.2
2016-07-17T07:52:29.899Z,1013.21
2016-07-17T07:53:29.890Z,1013.24
2016-07-17T07:54:29.881Z,1013.23
2016-07-17T07:55:29.874Z,1013.24
2016-07-17T07:56:29.865Z,1013.2
2016-07-17T07:57:29.858Z,1013.19
2016-07-17T07:58:29.851Z,1013.21
2016-07-17T07:59:29.842Z,1013.22
2016-07-17T08:00:29.838Z,1013.2
2016-07-17T08:01:29.828Z,1013.17
2016-07-17T08:02:29.818Z,1013.18
2016-07-17T08:03:29.808Z,1013.22
2016-07-17T08:04:29.804Z,1013.23
2016-07-17T08:05:29.794Z,1013.23
2016-07-17T08:06:29.784Z,1013.19
2016-07-17T08:07:29.777Z,1013.25
2016-07-17T08:08:29.769Z,1013.23
2016-07-17T08:09:29.769Z,1013.2
2016-07-17T08:10:29.757Z,1013.14
2016-07-17T08:11:29.746Z,1013.15
2016-07-17T08:12:29.738Z,1013.1
2016-07-17T08:13:29.730Z,1013.13
2016-07-17T08:14:29.725Z,1013.12
2016-07-17T08:15:29.718Z,1013.16
2016-07-17T08:16:29.707Z,1013.16
2016-07-17T08:17:29.702Z,1013.15
2016-07-17T08:18:29.692Z,1013.2
2016-07-17T08:19:29.686Z,1013.13
2016-07-17T08:20:29.675Z,1013.17
2016-07-17T08:21:29.668Z,1013.2
2016-07-17T08:22:29.662Z,1013.19
2016-07-17T08:23:29.652Z,1013.21
2016-07-17T08:24:29.646Z,1013.23
2016-07-17T08:25:29.636Z,1013.27
2016-07-17T08:26:29.630Z,1013.26
2016-07-17T08:27:29.623Z,1013.28
2016-07-17T08:28:29.616Z,1013.29
2016-07-17T08:29:29.607Z,1013.28
2016-07-17T08:30:29.600Z,1013.27
2016-07-17T08:31:29.593Z,1013.33
2016-07-17T08:32:29.789Z,1013.31
2016-07-17T08:33:29.578Z,1013.35
2016-07-17T08:34:29.571Z,1013.38
2016-07-17T08:35:29.564Z,1013.38
2016-07-17T08:36:29.556Z,1013.42
2016-07-17T08:37:29.550Z,1013.44
2016-07-17T08:38:29.542Z,1013.41
2016-07-17T08:39:29.533Z,1013.33
2016-07-17T08:40:29.526Z,1013.27
2016-07-17T08:41:29.518Z,1013.24
2016-07-17T08:42:29.516Z,1013.19
2016-07-17T08:43:29.502Z,1013.18
2016-07-17T08:44:29.496Z,1013.21
2016-07-17T08:45:29.490Z,1013.2
2016-07-17T08:46:29.484Z,1013.27
2016-07-17T08:47:29.474Z,1013.28
2016-07-17T08:48:29.467Z,1013.33
2016-07-17T08:49:29.458Z,1013.34
2016-07-17T08:50:29.455Z,1013.32
2016-07-17T08:51:29.441Z,1013.36
2016-07-17T08:52:29.435Z,1013.37
2016-07-17T08:53:29.426Z,1013.38
2016-07-17T08:54:29.419Z,1013.39
2016-07-17T08:55:29.413Z,1013.39
2016-07-17T08:56:29.409Z,1013.45
2016-07-17T08:57:29.397Z,1013.46
2016-07-17T08:58:29.388Z,1013.45
2016-07-17T08:59:29.381Z,1013.4
2016-07-17T09:00:29.373Z,1013.41
2016-07-17T09:01:29.368Z,1013.42
2016-07-17T09:02:29.358Z,1013.42
2016-07-17T09:03:29.351Z,1013.41
2016-07-17T09:04:29.346Z,1013.4
2016-07-17T09:05:29.336Z,1013.41
2016-07-17T09:06:29.330Z,1013.37
2016-07-17T09:07:29.324Z,1013.4
2016-07-17T09:08:29.316Z,1013.36
2016-07-17T09:09:29.309Z,1013.38
2016-07-17T09:10:29.302Z,1013.38
2016-07-17T09:11:29.293Z,1013.42
2016-07-17T09:12:29.287Z,1013.4
2016-07-17T09:13:29.280Z,1013.4
2016-07-17T09:14:29.273Z,1013.35
2016-07-17T09:15:29.266Z,1013.31
2016-07-17T09:16:29.258Z,1013.36
2016-07-17T09:17:29.251Z,1013.36
2016-07-17T09:18:29.246Z,1013.33
2016-07-17T09:19:29.240Z,1013.33
2016-07-17T09:20:29.231Z,1013.4
2016-07-17T09:21:29.234Z,1013.39
2016-07-17T09:22:29.226Z,1013.34
2016-07-17T09:23:29.215Z,1013.32
2016-07-17T09:24:29.206Z,1013.33
2016-07-17T09:25:29.197Z,1013.36
2016-07-17T09:26:29.192Z,1013.34
2016-07-17T09:27:29.184Z,1013.34
2016-07-17T09:28:29.180Z,1013.44
2016-07-17T09:29:29.171Z,1013.42
2016-07-17T09:30:29.166Z,1013.42
2016-07-17T09:31:29.159Z,1013.37
2016-07-17T09:32:29.153Z,1013.39
2016-07-17T09:33:29.147Z,1013.38
2016-07-17T09:34:29.142Z,1013.37
2016-07-17T09:35:29.133Z,1013.32
2016-07-17T09:36:29.126Z,1013.37
2016-07-17T09:37:29.121Z,1013.38
2016-07-17T09:38:29.111Z,1013.36
2016-07-17T09:39:29.106Z,1013.34
2016-07-17T09:40:29.103Z,1013.38
2016-07-17T09:41:29.094Z,1013.4
2016-07-17T09:42:29.085Z,1013.39
2016-07-17T09:43:29.078Z,1013.37
2016-07-17T09:44:29.071Z,1013.38
2016-07-17T09:45:29.066Z,1013.37
2016-07-17T09:46:29.060Z,1013.39
2016-07-17T09:47:29.055Z,1013.34
2016-07-17T09:48:29.047Z,1013.38
2016-07-17T09:49:29.043Z,1013.38
2016-07-17T09:50:29.036Z,1013.35
2016-07-17T09:51:29.028Z,1013.39
2016-07-17T09:52:29.021Z,1013.43
2016-07-17T09:53:29.014Z,1013.35
2016-07-17T09:54:29.006Z,1013.33
2016-07-17T09:55:29.001Z,1013.32
2016-07-17T09:56:28.994Z,1013.3
2016-07-17T09:57:29.001Z,1013.34
2016-07-17T09:58:28.981Z,1013.36
2016-07-17T09:59:28.977Z,1013.34
2016-07-17T10:00:28.970Z,1013.28
2016-07-17T10:01:28.962Z,1013.26
2016-07-17T10:02:28.961Z,1013.28
2016-07-17T10:03:28.950Z,1013.29
2016-07-17T10:04:28.943Z,1013.26
2016-07-17T10:05:28.937Z,1013.26
2016-07-17T10:06:28.933Z,1013.29
2016-07-17T10:07:28.923Z,1013.28
2016-07-17T10:08:28.918Z,1013.26
2016-07-17T10:09:28.913Z,1013.26
2016-07-17T10:10:28.910Z,1013.25
2016-07-17T10:11:28.899Z,1013.23
2016-07-17T10:12:28.891Z,1013.18
2016-07-17T10:13:28.894Z,1013.18
2016-07-17T10:14:28.883Z,1013.14
2016-07-17T10:15:28.871Z,1013.2
2016-07-17T10:16:28.867Z,1013.22
2016-07-17T10:17:28.862Z,1013.2
2016-07-17T10:18:28.864Z,1013.2
2016-07-17T10:19:28.847Z,1013.21
2016-07-17T10:20:28.841Z,1013.19
2016-07-17T10:21:28.835Z,1013.23
2016-07-17T10:22:28.826Z,1013.19
2016-07-17T10:23:28.819Z,1013.22
2016-07-17T10:24:28.814Z,1013.18
2016-07-17T10:25:28.808Z,1013.19
2016-07-17T10:26:28.800Z,1013.19
2016-07-17T10:27:28.795Z,1013.2
2016-07-17T10:28:28.790Z,1013.18
2016-07-17T10:29:28.788Z,1013.21
2016-07-17T10:30:28.776Z,1013.24
2016-07-17T10:31:28.770Z,1013.19
2016-07-17T10:32:28.965Z,1013.21
2016-07-17T10:33:28.757Z,1013.17
2016-07-17T10:34:28.755Z,1013.16
2016-07-17T10:35:28.744Z,1013.21
2016-07-17T10:36:28.739Z,1013.21
2016-07-17T10:37:28.732Z,1013.2
2016-07-17T10:38:28.727Z,1013.19
2016-07-17T10:39:28.721Z,1013.25
2016-07-17T10:40:28.714Z,1013.24
2016-07-17T10:41:28.708Z,1013.21
2016-07-17T10:42:28.702Z,1013.27
2016-07-17T10:43:28.697Z,1013.26
2016-07-17T10:44:28.689Z,1013.23
2016-07-17T10:45:28.683Z,1013.3
2016-07-17T10:46:28.688Z,1013.27
2016-07-17T10:47:28.671Z,1013.28
2016-07-17T10:48:28.664Z,1013.32
2016-07-17T10:49:28.658Z,1013.33
2016-07-17T10:50:28.652Z,1013.36
2016-07-17T10:51:28.643Z,1013.35
2016-07-17T10:52:28.636Z,1013.33
2016-07-17T10:53:28.632Z,1013.31
2016-07-17T10:54:28.622Z,1013.28
2016-07-17T10:55:28.617Z,1013.34
2016-07-17T10:56:28.611Z,1013.26
2016-07-17T10:57:28.605Z,1013.23
2016-07-17T10:58:28.597Z,1013.2
2016-07-17T10:59:28.592Z,1013.21
2016-07-17T11:00:28.585Z,1013.22
2016-07-17T11:01:28.578Z,1013.26
2016-07-17T11:02:28.570Z,1013.23
2016-07-17T11:03:28.567Z,1013.23
2016-07-17T11:04:28.611Z,1013.24
2016-07-17T11:05:28.556Z,1013.24
2016-07-17T11:06:28.546Z,1013.24
2016-07-17T11:07:28.538Z,1013.24
2016-07-17T11:08:28.530Z,1013.22
2016-07-17T11:09:28.538Z,1013.22
2016-07-17T11:10:28.518Z,1013.21
2016-07-17T11:11:28.515Z,1013.19
2016-07-17T11:12:28.506Z,1013.24
2016-07-17T11:13:28.502Z,1013.19
2016-07-17T11:14:28.495Z,1013.2
2016-07-17T11:15:28.487Z,1013.21
2016-07-17T11:16:28.480Z,1013.19
2016-07-17T11:17:28.474Z,1013.17
2016-07-17T11:18:28.464Z,1013.16
2016-07-17T11:19:28.460Z,1013.14
2016-07-17T11:20:28.464Z,1013.13
2016-07-17T11:21:28.459Z,1013.1
2016-07-17T11:22:28.447Z,1013.07
2016-07-17T11:23:28.444Z,1013.14
2016-07-17T11:24:28.432Z,1013.16
2016-07-17T11:25:28.424Z,1013.12
2016-07-17T11:26:28.417Z,1013.13
2016-07-17T11:27:28.413Z,1013.11
2016-07-17T11:28:28.406Z,1013.18
2016-07-17T11:29:28.402Z,1013.08
2016-07-17T11:30:28.394Z,1013.23
2016-07-17T11:31:28.387Z,1013.17
2016-07-17T11:32:28.382Z,1013.18
2016-07-17T11:33:28.382Z,1013.15
2016-07-17T11:34:28.373Z,1013.16
2016-07-17T11:35:28.369Z,1013.1
2016-07-17T11:36:28.361Z,1013.2
2016-07-17T11:37:28.358Z,1013.11
2016-07-17T11:38:28.351Z,1013.16
2016-07-17T11:39:28.345Z,1013.13
2016-07-17T11:40:28.340Z,1013.15
2016-07-17T11:41:28.333Z,1013.14
2016-07-17T11:42:28.327Z,1013.2
2016-07-17T11:43:28.322Z,1013.21
2016-07-17T11:44:28.315Z,1013.24
2016-07-17T11:45:28.320Z,1013.15
2016-07-17T11:46:28.305Z,1013.14
2016-07-17T11:47:28.303Z,1013.18
2016-07-17T11:48:28.295Z,1013.18
2016-07-17T11:49:28.292Z,1013.15
2016-07-17T11:50:28.286Z,1013.14
2016-07-17T11:51:28.281Z,1013.12
2016-07-17T11:52:28.275Z,1013.13
2016-07-17T11:53:28.269Z,1013.11
2016-07-17T11:54:28.268Z,1013.1
2016-07-17T11:55:28.260Z,1013.08
2016-07-17T11:56:28.254Z,1013.07
2016-07-17T11:57:28.249Z,1013.06
2016-07-17T11:58:28.244Z,1013
2016-07-17T11:59:28.237Z,1013.04
2016-07-17T12:00:28.233Z,1013
2016-07-17T12:01:28.226Z,1012.97
2016-07-17T12:02:28.222Z,1013.02
2016-07-17T12:03:28.219Z,1013.01
2016-07-17T12:04:28.215Z,1013.04
2016-07-17T12:05:28.209Z,1012.98
2016-07-17T12:06:28.206Z,1013.03
2016-07-17T12:07:28.206Z,1013.01
2016-07-17T12:08:28.201Z,1012.95